createdAt,value
2022-10-28T00:00:09.182Z,83.61206055
2022-10-28T00:01:09.683Z,83.7097168
2022-10-28T00:02:10.133Z,83.61206055
2022-10-28T00:03:10.532Z,83.61206055
2022-10-28T00:04:10.960Z,83.7097168
2022-10-28T00:05:11.442Z,83.81347656
2022-10-28T00:06:11.881Z,83.61206055
2022-10-28T00:07:12.379Z,83.30688477
2022-10-28T00:08:12.851Z,83.40454102
2022-10-28T00:09:14.086Z,83.40454102
2022-10-28T00:10:14.629Z,83.40454102
2022-10-28T00:11:45.663Z,83.30688477
2022-10-28T00:12:46.129Z,83.00170898
2022-10-28T00:13:46.565Z,83.00170898
2022-10-28T00:14:47.797Z,82.80029297
2022-10-28T00:15:48.253Z,82.80029297
2022-10-28T00:16:48.757Z,82.80029297
2022-10-28T00:17:49.252Z,82.89794922
2022-10-28T00:18:49.742Z,82.80029297
2022-10-28T00:19:50.838Z,82.80029297
2022-10-28T00:20:51.339Z,82.80029297
2022-10-28T00:21:51.800Z,82.80029297
2022-10-28T00:22:52.306Z,82.6965332
2022-10-28T00:23:52.749Z,82.7331543
2022-10-28T00:24:53.873Z,82.63549805
2022-10-28T00:25:54.323Z,82.83691406
2022-10-28T00:26:54.761Z,82.53173828
2022-10-28T00:27:55.628Z,82.53173828
2022-10-28T00:28:56.008Z,82.53173828
2022-10-28T00:29:57.299Z,82.63549805
2022-10-28T00:30:57.866Z,82.63549805
2022-10-28T00:31:58.301Z,82.53173828
2022-10-28T00:32:58.801Z,82.42797852
2022-10-28T00:33:59.205Z,82.42797852
2022-10-28T00:34:59.649Z,82.42797852
2022-10-28T00:36:03.200Z,82.42797852
2022-10-28T00:37:00.580Z,82.42797852
2022-10-28T00:38:01.076Z,82.2265625
2022-10-28T00:39:01.560Z,82.2265625
2022-10-28T00:40:02.879Z,82.2265625
2022-10-28T00:41:03.330Z,82.33032227
2022-10-28T00:42:03.821Z,82.33032227
2022-10-28T00:43:04.241Z,82.42797852
2022-10-28T00:44:04.709Z,82.42797852
2022-10-28T00:45:05.848Z,82.42797852
2022-10-28T00:46:06.300Z,82.53173828
2022-10-28T00:47:06.796Z,82.53173828
2022-10-28T00:48:07.267Z,82.33032227
2022-10-28T00:49:07.729Z,82.42797852
2022-10-28T00:50:08.843Z,82.42797852
2022-10-28T00:51:09.293Z,82.53173828
2022-10-28T00:52:09.815Z,82.67211914
2022-10-28T00:53:10.235Z,82.67211914
2022-10-28T00:54:10.688Z,82.87353516
2022-10-28T00:55:11.857Z,82.97729492
2022-10-28T00:56:12.466Z,83.08105469
2022-10-28T00:57:12.911Z,83.17871094
2022-10-28T00:58:13.389Z,83.38012695
2022-10-28T00:59:14.591Z,83.2824707
2022-10-28T01:00:45.402Z,83.48388672
2022-10-28T01:01:46.008Z,83.58764648
2022-10-28T01:02:46.445Z,83.58764648
2022-10-28T01:03:46.816Z,83.58764648
2022-10-28T01:04:47.247Z,83.68530273
2022-10-28T01:05:47.706Z,83.68530273
2022-10-28T01:06:48.168Z,83.68530273
2022-10-28T01:07:49.619Z,83.48388672
2022-10-28T01:08:50.045Z,83.38012695
2022-10-28T01:09:51.326Z,83.17871094
2022-10-28T01:10:51.792Z,83.08105469
2022-10-28T01:11:52.249Z,83.08105469
2022-10-28T01:12:53.202Z,83.08105469
2022-10-28T01:13:53.213Z,83.17871094
2022-10-28T01:14:53.773Z,83.17871094
2022-10-28T01:15:54.251Z,83.38012695
2022-10-28T01:16:55.607Z,83.48388672
2022-10-28T01:17:56.113Z,83.08105469
2022-10-28T01:18:56.569Z,82.77587891
2022-10-28T01:19:57.820Z,82.77587891
2022-10-28T01:20:58.339Z,82.67211914
2022-10-28T01:21:58.820Z,82.47070313
2022-10-28T01:22:59.283Z,82.47070313
2022-10-28T01:23:59.727Z,82.47070313
2022-10-28T01:25:00.194Z,82.56835938
2022-10-28T01:26:00.681Z,82.26318359
2022-10-28T01:27:01.136Z,82.16552734
2022-10-28T01:28:01.597Z,82.06176758
2022-10-28T01:29:02.046Z,82.06176758
2022-10-28T01:30:03.096Z,82.3059082
2022-10-28T01:31:03.543Z,82.40356445
2022-10-28T01:32:04.021Z,82.50732422
2022-10-28T01:33:04.540Z,82.61108398
2022-10-28T01:34:05.007Z,82.70874023
2022-10-28T01:35:05.463Z,82.70874023
2022-10-28T01:36:05.910Z,82.61108398
2022-10-28T01:37:06.430Z,82.70874023
2022-10-28T01:38:06.883Z,82.91625977
2022-10-28T01:39:07.363Z,82.91625977
2022-10-28T01:40:08.300Z,83.01391602
2022-10-28T01:41:08.752Z,83.01391602
2022-10-28T01:42:09.231Z,83.11767578
2022-10-28T01:43:09.706Z,83.01391602
2022-10-28T01:44:10.177Z,82.8125
2022-10-28T01:45:10.657Z,82.8125
2022-10-28T01:46:11.305Z,82.91625977
2022-10-28T01:47:11.798Z,83.01391602
2022-10-28T01:48:12.458Z,82.91625977
2022-10-28T01:49:13.164Z,82.8125
2022-10-28T01:50:44.603Z,82.8125
2022-10-28T01:51:45.060Z,82.8125
2022-10-28T01:52:46.143Z,82.70874023
2022-10-28T01:53:46.766Z,82.70874023
2022-10-28T01:54:47.796Z,82.61108398
2022-10-28T01:55:48.517Z,82.70874023
2022-10-28T01:56:49.039Z,82.61108398
2022-10-28T01:57:49.540Z,82.70874023
2022-10-28T01:58:50.110Z,82.70874023
2022-10-28T01:59:51.601Z,82.70874023
2022-10-28T02:00:52.446Z,82.61108398
2022-10-28T02:01:52.986Z,82.50732422
2022-10-28T02:02:53.360Z,82.50732422
2022-10-28T02:03:53.747Z,82.3059082
2022-10-28T02:04:54.268Z,82.3059082
2022-10-28T02:05:54.725Z,82.40356445
2022-10-28T02:06:55.199Z,82.40356445
2022-10-28T02:07:55.701Z,82.50732422
2022-10-28T02:08:56.181Z,82.40356445
2022-10-28T02:09:57.605Z,82.61108398
2022-10-28T02:10:58.152Z,82.61108398
2022-10-28T02:11:58.578Z,82.40356445
2022-10-28T02:12:59.065Z,82.3059082
2022-10-28T02:13:59.518Z,82.20214844
2022-10-28T02:15:00.053Z,82.09838867
2022-10-28T02:16:00.454Z,82.09838867
2022-10-28T02:17:01.006Z,82.09838867
2022-10-28T02:18:02.133Z,82.14111328
2022-10-28T02:19:02.594Z,82.23876953
2022-10-28T02:20:03.589Z,82.3425293
2022-10-28T02:21:04.103Z,82.3425293
2022-10-28T02:22:04.625Z,82.44628906
2022-10-28T02:23:05.147Z,82.44628906
2022-10-28T02:24:05.599Z,82.44628906
2022-10-28T02:25:06.820Z,82.54394531
2022-10-28T02:26:07.297Z,82.54394531
2022-10-28T02:27:07.805Z,82.54394531
2022-10-28T02:28:08.385Z,82.3425293
2022-10-28T02:29:08.727Z,82.14111328
2022-10-28T02:30:10.099Z,82.23876953
2022-10-28T02:31:10.630Z,82.3425293
2022-10-28T02:32:11.063Z,82.54394531
2022-10-28T02:33:11.557Z,82.64770508
2022-10-28T02:34:12.007Z,82.54394531
2022-10-28T02:35:12.515Z,82.44628906
2022-10-28T02:36:13.399Z,82.64770508
2022-10-28T02:37:44.153Z,82.54394531
2022-10-28T02:38:44.670Z,82.23876953
2022-10-28T02:39:45.125Z,82.3425293
2022-10-28T02:40:46.396Z,82.44628906
2022-10-28T02:41:46.856Z,82.54394531
2022-10-28T02:42:47.297Z,82.54394531
2022-10-28T02:43:47.797Z,82.44628906
2022-10-28T02:44:48.231Z,82.3425293
2022-10-28T02:45:49.334Z,82.3425293
2022-10-28T02:46:49.826Z,82.44628906
2022-10-28T02:47:50.657Z,82.3425293
2022-10-28T02:48:51.127Z,82.3425293
2022-10-28T02:49:51.559Z,82.3425293
2022-10-28T02:50:52.895Z,82.23876953
2022-10-28T02:51:53.314Z,82.23876953
2022-10-28T02:52:54.064Z,82.23876953
2022-10-28T02:53:54.195Z,82.3425293
2022-10-28T02:54:54.694Z,82.3425293
2022-10-28T02:55:55.871Z,82.23876953
2022-10-28T02:56:56.351Z,82.3425293
2022-10-28T02:57:56.830Z,82.44628906
2022-10-28T02:58:57.301Z,82.3425293
2022-10-28T02:59:57.735Z,82.3425293
2022-10-28T03:00:58.979Z,82.3425293
2022-10-28T03:01:59.744Z,82.14111328
2022-10-28T03:03:00.086Z,82.03735352
2022-10-28T03:04:00.650Z,81.93359375
2022-10-28T03:05:01.138Z,81.62841797
2022-10-28T03:06:01.624Z,81.53076172
2022-10-28T03:07:02.152Z,81.53076172
2022-10-28T03:08:02.578Z,81.62841797
2022-10-28T03:09:03.061Z,81.53076172
2022-10-28T03:10:04.150Z,81.53076172
2022-10-28T03:11:04.568Z,81.42700195
2022-10-28T03:12:05.027Z,81.53076172
2022-10-28T03:13:05.513Z,81.53076172
2022-10-28T03:14:05.966Z,81.02416992
2022-10-28T03:15:07.334Z,81.02416992
2022-10-28T03:16:07.791Z,81.22558594
2022-10-28T03:17:08.333Z,81.22558594
2022-10-28T03:18:08.788Z,81.3293457
2022-10-28T03:20:10.347Z,81.42700195
2022-10-28T03:21:11.607Z,81.3293457
2022-10-28T03:22:12.068Z,81.22558594
2022-10-28T03:23:43.171Z,81.3293457
2022-10-28T03:24:43.695Z,81.22558594
2022-10-28T03:25:44.162Z,81.22558594
2022-10-28T03:26:44.762Z,81.22558594
2022-10-28T03:27:45.357Z,81.3293457
2022-10-28T03:28:45.898Z,81.3293457
2022-10-28T03:29:47.123Z,81.22558594
2022-10-28T03:30:47.621Z,81.12182617
2022-10-28T03:31:48.256Z,81.12182617
2022-10-28T03:32:49.425Z,81.22558594
2022-10-28T03:33:49.994Z,81.22558594
2022-10-28T03:34:50.562Z,81.12182617
2022-10-28T03:35:51.007Z,81.3293457
2022-10-28T03:36:51.559Z,81.42700195
2022-10-28T03:37:52.102Z,81.42700195
2022-10-28T03:38:52.754Z,81.42700195
2022-10-28T03:39:53.288Z,81.22558594
2022-10-28T03:40:53.785Z,81.22558594
2022-10-28T03:41:55.107Z,81.42700195
2022-10-28T03:42:56.057Z,81.42700195
2022-10-28T03:43:56.224Z,81.3293457
2022-10-28T03:44:56.824Z,81.22558594
2022-10-28T03:45:58.145Z,81.3293457
2022-10-28T03:46:58.581Z,81.3293457
2022-10-28T03:47:59.111Z,81.42700195
2022-10-28T03:48:59.648Z,81.53076172
2022-10-28T03:50:00.264Z,81.62841797
2022-10-28T03:51:01.332Z,81.53076172
2022-10-28T03:52:01.788Z,81.53076172
2022-10-28T03:53:03.231Z,81.53076172
2022-10-28T03:54:03.752Z,81.42700195
2022-10-28T03:55:04.327Z,81.53076172
2022-10-28T03:56:04.828Z,81.42700195
2022-10-28T03:57:05.311Z,81.42700195
2022-10-28T03:58:05.886Z,81.3293457
2022-10-28T03:59:06.481Z,81.3293457
2022-10-28T04:00:07.087Z,81.42700195
2022-10-28T04:01:08.649Z,81.53076172
2022-10-28T04:02:09.063Z,81.62841797
2022-10-28T04:03:09.404Z,81.53076172
2022-10-28T04:04:09.863Z,81.3293457
2022-10-28T04:05:10.388Z,81.42700195
2022-10-28T04:06:10.979Z,81.53076172
2022-10-28T04:07:11.585Z,81.3293457
2022-10-28T04:08:42.624Z,81.42700195
2022-10-28T04:09:43.164Z,81.42700195
2022-10-28T04:10:47.138Z,81.53076172
2022-10-28T04:11:45.195Z,81.53076172
2022-10-28T04:12:45.654Z,81.73217773
2022-10-28T04:13:46.158Z,81.73217773
2022-10-28T04:14:46.677Z,81.62841797
2022-10-28T04:15:47.253Z,81.62841797
2022-10-28T04:16:47.763Z,81.42700195
2022-10-28T04:17:48.269Z,81.53076172
2022-10-28T04:18:48.765Z,81.42700195
2022-10-28T04:19:49.199Z,81.42700195
2022-10-28T04:20:50.663Z,81.53076172
2022-10-28T04:21:51.333Z,81.73217773
2022-10-28T04:22:54.615Z,81.73217773
2022-10-28T04:23:52.297Z,81.62841797
2022-10-28T04:24:53.609Z,81.73217773
2022-10-28T04:25:54.312Z,81.79321289
2022-10-28T04:26:54.816Z,81.69555664
2022-10-28T04:27:55.595Z,81.59179688
2022-10-28T04:28:55.809Z,81.49414063
2022-10-28T04:29:56.304Z,81.39038086
2022-10-28T04:30:57.700Z,81.49414063
2022-10-28T04:31:58.246Z,81.49414063
2022-10-28T04:32:58.827Z,81.69555664
2022-10-28T04:33:59.352Z,81.79321289
2022-10-28T04:34:59.849Z,81.79321289
2022-10-28T04:36:00.323Z,81.79321289
2022-10-28T04:37:00.889Z,81.89697266
2022-10-28T04:38:01.453Z,81.89697266
2022-10-28T04:39:01.940Z,82.00073242
2022-10-28T04:40:03.352Z,81.69555664
2022-10-28T04:41:03.839Z,81.59179688
2022-10-28T04:42:04.478Z,81.69555664
2022-10-28T04:43:08.494Z,81.59179688
2022-10-28T04:44:05.504Z,81.59179688
2022-10-28T04:45:06.019Z,81.73217773
2022-10-28T04:46:06.472Z,81.93359375
2022-10-28T04:47:07.017Z,82.3425293
2022-10-28T04:48:07.591Z,82.40356445
2022-10-28T04:49:08.164Z,82.50732422
2022-10-28T04:50:09.353Z,82.23876953
2022-10-28T04:51:10.618Z,82.20214844
2022-10-28T04:52:13.452Z,82.3059082
2022-10-28T04:53:42.179Z,82.3059082
2022-10-28T04:54:43.672Z,82.20214844
2022-10-28T04:55:44.138Z,82.00073242
2022-10-28T04:56:44.604Z,82.03735352
2022-10-28T04:57:45.104Z,82.09838867
2022-10-28T04:58:45.659Z,82.09838867
2022-10-28T04:59:47.141Z,82.00073242
2022-10-28T05:00:47.591Z,82.00073242
2022-10-28T05:01:48.992Z,81.89697266
2022-10-28T05:02:49.383Z,82.09838867
2022-10-28T05:03:49.946Z,82.20214844
2022-10-28T05:04:50.615Z,82.20214844
2022-10-28T05:05:51.148Z,82.09838867
2022-10-28T05:06:51.655Z,82.00073242
2022-10-28T05:07:52.392Z,82.14111328
2022-10-28T05:08:52.942Z,82.40356445
2022-10-28T05:09:53.530Z,82.40356445
2022-10-28T05:10:54.640Z,82.40356445
2022-10-28T05:11:55.144Z,82.3059082
2022-10-28T05:12:55.664Z,82.3059082
2022-10-28T05:13:56.212Z,82.09838867
2022-10-28T05:14:56.774Z,82.20214844
2022-10-28T05:15:57.355Z,82.00073242
2022-10-28T05:16:58.879Z,82.09838867
2022-10-28T05:17:59.357Z,82.00073242
2022-10-28T05:18:59.831Z,82.00073242
2022-10-28T05:20:00.439Z,82.00073242
2022-10-28T05:21:01.670Z,82.09838867
2022-10-28T05:22:02.189Z,82.00073242
2022-10-28T05:23:02.697Z,81.89697266
2022-10-28T05:24:03.263Z,82.00073242
2022-10-28T05:25:04.409Z,81.89697266
2022-10-28T05:26:04.965Z,82.00073242
2022-10-28T05:27:05.548Z,82.00073242
2022-10-28T05:28:06.049Z,82.20214844
2022-10-28T05:29:06.541Z,82.3059082
2022-10-28T05:30:07.154Z,82.40356445
2022-10-28T05:31:08.649Z,82.40356445
2022-10-28T05:32:09.354Z,82.40356445
2022-10-28T05:33:09.877Z,82.40356445
2022-10-28T05:34:10.467Z,82.3059082
2022-10-28T05:35:41.718Z,82.20214844
2022-10-28T05:36:42.263Z,82.20214844
2022-10-28T05:37:42.766Z,82.20214844
2022-10-28T05:38:44.147Z,82.20214844
2022-10-28T05:39:44.625Z,82.09838867
2022-10-28T05:40:45.248Z,82.09838867
2022-10-28T05:41:46.578Z,82.09838867
2022-10-28T05:42:47.110Z,82.20214844
2022-10-28T05:43:47.605Z,82.3059082
2022-10-28T05:44:48.068Z,82.40356445
2022-10-28T05:45:48.610Z,82.44628906
2022-10-28T05:46:49.241Z,82.54394531
2022-10-28T05:47:49.831Z,82.64770508
2022-10-28T05:48:50.606Z,82.75146484
2022-10-28T05:49:51.083Z,82.75146484
2022-10-28T05:50:51.572Z,82.75146484
2022-10-28T05:51:52.983Z,82.54394531
2022-10-28T05:52:53.537Z,82.54394531
2022-10-28T05:53:54.030Z,82.44628906
2022-10-28T05:54:54.510Z,82.44628906
2022-10-28T05:55:54.992Z,82.44628906
2022-10-28T05:56:55.596Z,82.44628906
2022-10-28T05:57:56.761Z,82.44628906
2022-10-28T05:58:56.785Z,82.3425293
2022-10-28T05:59:57.328Z,82.44628906
2022-10-28T06:00:57.835Z,82.54394531
2022-10-28T06:01:58.970Z,82.64770508
2022-10-28T06:02:59.538Z,82.64770508
2022-10-28T06:04:00.182Z,82.54394531
2022-10-28T06:05:01.130Z,82.44628906
2022-10-28T06:06:01.714Z,82.44628906
2022-10-28T06:07:02.199Z,82.54394531
2022-10-28T06:08:02.897Z,82.64770508
2022-10-28T06:09:03.408Z,82.64770508
2022-10-28T06:10:03.971Z,82.61108398
2022-10-28T06:11:03.074Z,82.40356445
2022-10-28T06:12:04.337Z,82.20214844
2022-10-28T06:13:04.953Z,82.20214844
2022-10-28T06:14:05.521Z,82.20214844
2022-10-28T06:15:06.048Z,82.40356445
2022-10-28T06:16:06.516Z,82.40356445
2022-10-28T06:17:06.985Z,82.3059082
2022-10-28T06:18:07.528Z,82.40356445
2022-10-28T06:19:08.023Z,82.40356445
2022-10-28T06:20:08.602Z,82.3059082
2022-10-28T06:21:39.723Z,82.3059082
2022-10-28T06:22:41.104Z,82.3059082
2022-10-28T06:23:41.798Z,82.50732422
2022-10-28T06:24:42.410Z,82.61108398
2022-10-28T06:25:42.984Z,82.61108398
2022-10-28T06:26:43.459Z,82.61108398
2022-10-28T06:27:43.955Z,82.61108398
2022-10-28T06:28:44.590Z,82.70874023
2022-10-28T06:29:45.219Z,82.70874023
2022-10-28T06:30:45.788Z,82.70874023
2022-10-28T06:31:47.118Z,82.70874023
2022-10-28T06:32:47.669Z,82.8125
2022-10-28T06:33:48.389Z,82.91625977
2022-10-28T06:34:49.171Z,83.82568359
2022-10-28T06:35:49.849Z,84.23461914
2022-10-28T06:36:50.417Z,83.82568359
2022-10-28T06:37:51.198Z,84.13085938
2022-10-28T06:38:51.474Z,84.94873047
2022-10-28T06:39:52.109Z,85.65673828
2022-10-28T06:40:52.815Z,85.25390625
2022-10-28T06:41:53.965Z,85.15014648
2022-10-28T06:42:54.781Z,85.04638672
2022-10-28T06:43:55.005Z,84.53979492
2022-10-28T06:44:55.587Z,84.13085938
2022-10-28T06:45:56.099Z,83.58764648
2022-10-28T06:46:58.105Z,83.2824707
2022-10-28T06:47:58.585Z,82.77587891
2022-10-28T06:48:59.096Z,82.77587891
2022-10-28T06:49:59.615Z,82.77587891
2022-10-28T06:51:00.149Z,82.77587891
2022-10-28T06:52:01.411Z,82.77587891
2022-10-28T06:53:02.659Z,82.67211914
2022-10-28T06:54:03.258Z,82.67211914
2022-10-28T06:55:03.779Z,82.56835938
2022-10-28T06:56:04.467Z,82.67211914
2022-10-28T06:57:05.034Z,82.67211914
2022-10-28T06:58:05.546Z,82.56835938
2022-10-28T06:59:06.031Z,82.56835938
2022-10-28T07:00:06.506Z,82.36694336
2022-10-28T07:01:07.099Z,82.36694336
2022-10-28T07:02:08.675Z,82.36694336
2022-10-28T07:03:09.064Z,82.36694336
2022-10-28T07:04:09.553Z,82.47070313
2022-10-28T07:05:40.452Z,82.47070313
2022-10-28T07:06:41.056Z,82.56835938
2022-10-28T07:07:41.666Z,82.56835938
2022-10-28T07:08:42.179Z,82.77587891
2022-10-28T07:09:43.206Z,82.56835938
2022-10-28T07:10:43.649Z,82.56835938
2022-10-28T07:11:45.193Z,82.36694336
2022-10-28T07:12:45.881Z,82.26318359
2022-10-28T07:13:48.871Z,82.26318359
2022-10-28T07:14:46.974Z,82.06176758
2022-10-28T07:15:47.426Z,81.86035156
2022-10-28T07:16:47.977Z,81.95800781
2022-10-28T07:17:49.228Z,81.86035156
2022-10-28T07:18:49.854Z,81.7565918
2022-10-28T07:19:50.623Z,81.61621094
2022-10-28T07:20:51.095Z,81.31103516
2022-10-28T07:21:52.260Z,81.41479492
2022-10-28T07:22:52.993Z,81.31103516
2022-10-28T07:23:53.390Z,81.10961914
2022-10-28T07:24:54.691Z,81.10961914
2022-10-28T07:25:55.317Z,81.21337891
2022-10-28T07:26:57.779Z,81.21337891
2022-10-28T07:27:56.837Z,81.10961914
2022-10-28T07:28:56.973Z,81.00585938
2022-10-28T07:29:57.582Z,80.80444336
2022-10-28T07:30:58.130Z,80.80444336
2022-10-28T07:31:59.211Z,80.90820313
2022-10-28T07:32:59.780Z,80.90820313
2022-10-28T07:34:00.437Z,80.90820313
2022-10-28T07:35:01.065Z,81.10961914
2022-10-28T07:36:01.639Z,81.21337891
2022-10-28T07:37:02.089Z,81.31103516
2022-10-28T07:38:02.557Z,81.31103516
2022-10-28T07:39:03.165Z,81.00585938
2022-10-28T07:40:03.700Z,80.90820313
2022-10-28T07:41:04.209Z,80.90820313
2022-10-28T07:42:05.707Z,81.00585938
2022-10-28T07:43:06.096Z,80.90820313
2022-10-28T07:44:06.715Z,80.80444336
2022-10-28T07:45:08.226Z,80.70678711
2022-10-28T07:46:08.748Z,80.60302734
2022-10-28T07:47:09.794Z,80.90820313
2022-10-28T07:48:40.394Z,80.90820313
2022-10-28T07:49:40.937Z,80.49926758
2022-10-28T07:50:41.556Z,80.49926758
2022-10-28T07:51:42.134Z,80.70678711
2022-10-28T07:52:43.436Z,80.70678711
2022-10-28T07:53:43.896Z,80.90820313
2022-10-28T07:54:45.217Z,81.00585938
2022-10-28T07:55:45.746Z,81.21337891
2022-10-28T07:56:46.246Z,81.41479492
2022-10-28T07:58:48.220Z,81.61621094
2022-10-28T07:58:51.133Z,81.51855469
2022-10-28T07:59:48.808Z,81.7199707
2022-10-28T08:00:49.494Z,81.7199707
2022-10-28T08:01:50.027Z,81.7199707
2022-10-28T08:02:51.028Z,81.82373047
2022-10-28T08:03:51.498Z,81.82373047
2022-10-28T08:04:52.048Z,81.82373047
2022-10-28T08:05:56.289Z,81.92138672
2022-10-28T08:07:53.776Z,82.12280273
2022-10-28T08:08:54.141Z,82.2265625
2022-10-28T08:09:54.726Z,82.2265625
2022-10-28T08:10:55.272Z,82.2265625
2022-10-28T08:11:56.796Z,82.33032227
2022-10-28T08:12:57.326Z,82.42797852
2022-10-28T08:13:58.467Z,82.2265625
2022-10-28T08:14:58.965Z,82.12280273
2022-10-28T08:15:59.569Z,81.92138672
2022-10-28T08:17:00.118Z,81.78100586
2022-10-28T08:18:00.594Z,81.68334961
2022-10-28T08:19:02.922Z,81.88476563
2022-10-28T08:20:01.495Z,82.08618164
2022-10-28T08:21:02.105Z,82.18994141
2022-10-28T08:22:03.195Z,82.28759766
2022-10-28T08:23:05.376Z,82.39135742
2022-10-28T08:24:04.277Z,82.39135742
2022-10-28T08:25:04.764Z,82.49511719
2022-10-28T08:26:05.287Z,82.59277344
2022-10-28T08:27:05.877Z,82.59277344
2022-10-28T08:28:06.597Z,82.59277344
2022-10-28T08:29:07.061Z,82.59277344
2022-10-28T08:30:07.544Z,82.59277344
2022-10-28T08:31:09.155Z,82.55615234
2022-10-28T08:32:09.698Z,82.45239258
2022-10-28T08:33:40.542Z,82.45239258
2022-10-28T08:34:43.534Z,82.55615234
2022-10-28T08:35:41.428Z,82.55615234
2022-10-28T08:36:42.112Z,82.55615234
2022-10-28T08:37:42.620Z,82.75756836
2022-10-28T08:38:45.779Z,82.65991211
2022-10-28T08:39:43.591Z,82.65991211
2022-10-28T08:40:44.065Z,82.55615234
2022-10-28T08:41:44.493Z,82.35473633
2022-10-28T08:42:45.972Z,82.04956055
2022-10-28T08:43:57.106Z,81.94580078
2022-10-28T08:44:47.087Z,82.04956055
2022-10-28T08:45:47.497Z,81.54296875
2022-10-28T08:46:47.963Z,81.74438477
2022-10-28T08:47:48.593Z,81.70776367
2022-10-28T08:48:49.141Z,81.60400391
2022-10-28T08:49:49.707Z,81.60400391
2022-10-28T08:50:50.506Z,81.70776367
2022-10-28T08:51:51.040Z,81.90917969
2022-10-28T08:52:52.851Z,81.90917969
2022-10-28T08:53:53.086Z,81.80541992
2022-10-28T08:54:54.182Z,81.40258789
2022-10-28T08:55:54.655Z,81.26220703
2022-10-28T08:56:55.135Z,81.3659668
2022-10-28T08:57:55.603Z,81.3659668
2022-10-28T08:58:56.740Z,81.26220703
2022-10-28T08:59:57.255Z,81.15844727
2022-10-28T09:00:57.927Z,81.15844727
2022-10-28T09:01:58.349Z,81.06079102
2022-10-28T09:02:59.434Z,81.06079102
2022-10-28T09:04:00.042Z,80.95703125
2022-10-28T09:05:00.657Z,80.65185547
2022-10-28T09:06:01.187Z,80.45043945
2022-10-28T09:07:01.701Z,80.55419922
2022-10-28T09:08:02.166Z,80.61523438
2022-10-28T09:09:03.535Z,80.61523438
2022-10-28T09:10:03.261Z,80.61523438
2022-10-28T09:11:03.885Z,80.51757813
2022-10-28T09:12:04.355Z,80.61523438
2022-10-28T09:13:05.410Z,80.61523438
2022-10-28T09:14:06.795Z,80.71899414
2022-10-28T09:15:07.464Z,81.02416992
2022-10-28T09:16:10.263Z,81.62841797
2022-10-28T09:17:40.178Z,81.48803711
2022-10-28T09:18:40.667Z,81.39038086
2022-10-28T09:19:41.445Z,80.7800293
2022-10-28T09:20:42.106Z,80.37719727
2022-10-28T09:21:42.660Z,80.17578125
2022-10-28T09:22:43.688Z,80.07202148
2022-10-28T09:23:44.197Z,79.96826172
2022-10-28T09:24:45.777Z,79.96826172
2022-10-28T09:25:46.378Z,79.56542969
2022-10-28T09:26:47.096Z,79.52880859
2022-10-28T09:27:47.537Z,78.61938477
2022-10-28T09:28:47.975Z,78.31420898
2022-10-28T09:29:48.684Z,78.41796875
2022-10-28T09:30:49.378Z,78.41796875
2022-10-28T09:31:49.964Z,78.21044922
2022-10-28T09:32:51.382Z,78.11279297
2022-10-28T09:33:51.637Z,77.91137695
2022-10-28T09:34:52.386Z,77.40478516
2022-10-28T09:35:53.045Z,77.50244141
2022-10-28T09:36:53.741Z,77.56958008
2022-10-28T09:37:54.195Z,77.67333984
2022-10-28T09:38:55.189Z,77.77099609
2022-10-28T09:39:55.842Z,77.97241211
2022-10-28T09:40:56.451Z,77.77099609
2022-10-28T09:41:57.112Z,77.56958008
2022-10-28T09:42:58.461Z,77.36816406
2022-10-28T09:43:58.952Z,77.2644043
2022-10-28T09:44:59.829Z,77.16674805
2022-10-28T09:46:00.229Z,77.16674805
2022-10-28T09:47:00.847Z,77.42919922
2022-10-28T09:48:02.156Z,77.33154297
2022-10-28T09:49:02.633Z,77.33154297
2022-10-28T09:50:03.101Z,76.62353516
2022-10-28T09:51:03.775Z,76.01928711
2022-10-28T09:52:04.525Z,76.22070313
2022-10-28T09:53:06.014Z,76.38549805
2022-10-28T09:54:07.403Z,75.87890625
2022-10-28T09:55:38.581Z,75.47607422
2022-10-28T09:56:39.199Z,74.56665039
2022-10-28T09:57:39.912Z,73.75488281
2022-10-28T09:58:40.393Z,74.12719727
2022-10-28T09:59:40.871Z,74.0234375
2022-10-28T10:00:41.436Z,73.41918945
2022-10-28T10:01:42.213Z,72.81494141
2022-10-28T10:02:43.788Z,72.21069336
2022-10-28T10:03:44.431Z,72.30834961
2022-10-28T10:04:44.953Z,72.27172852
2022-10-28T10:05:45.441Z,71.97265625
2022-10-28T10:06:46.011Z,72.17407227
2022-10-28T10:07:46.749Z,71.56982422
2022-10-28T10:08:47.575Z,71.66748047
2022-10-28T10:09:48.050Z,71.77124023
2022-10-28T10:10:48.573Z,72.17407227
2022-10-28T10:11:49.003Z,71.53320313
2022-10-28T10:12:52.408Z,71.33178711
2022-10-28T10:13:51.428Z,71.93603516
2022-10-28T10:14:52.039Z,71.33178711
2022-10-28T10:15:52.621Z,71.23413086
2022-10-28T10:16:53.209Z,70.82519531
2022-10-28T10:17:53.818Z,70.59326172
2022-10-28T10:18:55.062Z,70.28808594
2022-10-28T10:19:55.599Z,69.98901367
2022-10-28T10:20:56.085Z,69.88525391
2022-10-28T10:21:56.523Z,69.58618164
2022-10-28T10:22:57.913Z,69.58618164
2022-10-28T10:23:58.907Z,69.07958984
2022-10-28T10:24:59.345Z,67.76733398
2022-10-28T10:25:59.816Z,68.17016602
2022-10-28T10:27:00.214Z,68.37158203
2022-10-28T10:28:00.750Z,68.07250977
2022-10-28T10:29:01.340Z,67.76733398
2022-10-28T10:30:01.862Z,67.84057617
2022-10-28T10:31:02.357Z,67.53540039
2022-10-28T10:32:02.772Z,67.53540039
2022-10-28T10:33:04.191Z,67.84057617
2022-10-28T10:34:04.709Z,68.04199219
2022-10-28T10:35:05.261Z,68.04199219
2022-10-28T10:36:05.805Z,67.53540039
2022-10-28T10:37:06.262Z,67.23022461
2022-10-28T10:38:06.700Z,67.23022461
2022-10-28T10:39:07.613Z,66.93115234
2022-10-28T10:40:38.296Z,67.13256836
2022-10-28T10:41:38.726Z,67.13256836
2022-10-28T10:42:46.666Z,67.23022461
2022-10-28T10:43:40.555Z,67.43164063
2022-10-28T10:44:41.082Z,67.63305664
2022-10-28T10:45:41.612Z,67.63305664
2022-10-28T10:46:42.114Z,67.33398438
2022-10-28T10:47:42.515Z,67.19970703
2022-10-28T10:48:43.082Z,66.99829102
2022-10-28T10:49:43.634Z,67.10205078
2022-10-28T10:50:44.156Z,66.90063477
2022-10-28T10:51:44.641Z,65.99121094
2022-10-28T10:52:45.682Z,65.18554688
2022-10-28T10:53:47.229Z,65.18554688
2022-10-28T10:54:47.781Z,65.49072266
2022-10-28T10:55:48.238Z,65.38696289
2022-10-28T10:56:48.770Z,65.49072266
2022-10-28T10:57:49.108Z,65.08789063
2022-10-28T10:58:49.629Z,65.18554688
2022-10-28T10:59:50.077Z,65.18554688
2022-10-28T11:00:50.811Z,65.08789063
2022-10-28T11:01:51.364Z,65.28930664
2022-10-28T11:02:55.044Z,65.96069336
2022-10-28T11:03:53.074Z,66.66870117
2022-10-28T11:04:53.552Z,66.76635742
2022-10-28T11:05:59.993Z,65.05737305